sensor_id;sensor_type;location;lat;lon;timestamp;P1;durP1;ratioP1;P2;durP2;ratioP2
16504;SDS011;8365;51.030;4.696;2022-07-04T00:02:08;4.87;;;2.60;;
16504;SDS011;8365;51.030;4.696;2022-07-04T00:04:39;4.47;;;2.83;;
16504;SDS011;8365;51.030;4.696;2022-07-04T00:07:09;3.97;;;2.80;;
16504;SDS011;8365;51.030;4.696;2022-07-04T00:09:39;4.03;;;2.63;;
16504;SDS011;8365;51.030;4.696;2022-07-04T00:12:12;3.53;;;3.00;;
16504;SDS011;8365;51.030;4.696;2022-07-04T00:14:42;4.00;;;2.63;;
16504;SDS011;8365;51.030;4.696;2022-07-04T00:17:13;6.03;;;3.07;;
16504;SDS011;8365;51.030;4.696;2022-07-04T00:19:43;3.53;;;2.67;;
16504;SDS011;8365;51.030;4.696;2022-07-04T00:22:14;3.47;;;2.77;;
16504;SDS011;8365;51.030;4.696;2022-07-04T00:24:44;4.97;;;3.10;;
16504;SDS011;8365;51.030;4.696;2022-07-04T00:27:15;3.77;;;2.83;;
16504;SDS011;8365;51.030;4.696;2022-07-04T00:29:45;5.33;;;3.23;;
16504;SDS011;8365;51.030;4.696;2022-07-04T00:32:16;4.70;;;3.10;;
16504;SDS011;8365;51.030;4.696;2022-07-04T00:34:47;4.17;;;2.60;;
16504;SDS011;8365;51.030;4.696;2022-07-04T00:37:20;3.53;;;2.83;;
16504;SDS011;8365;51.030;4.696;2022-07-04T00:39:50;3.87;;;2.60;;
16504;SDS011;8365;51.030;4.696;2022-07-04T00:42:21;3.97;;;3.00;;
16504;SDS011;8365;51.030;4.696;2022-07-04T00:44:54;3.13;;;2.80;;
16504;SDS011;8365;51.030;4.696;2022-07-04T00:47:24;4.00;;;2.87;;
16504;SDS011;8365;51.030;4.696;2022-07-04T00:49:54;3.40;;;3.10;;
16504;SDS011;8365;51.030;4.696;2022-07-04T00:52:25;9.37;;;3.40;;
16504;SDS011;8365;51.030;4.696;2022-07-04T00:54:55;3.67;;;3.23;;
16504;SDS011;8365;51.030;4.696;2022-07-04T00:57:26;5.80;;;3.00;;
16504;SDS011;8365;51.030;4.696;2022-07-04T00:59:57;4.73;;;3.27;;
16504;SDS011;8365;51.030;4.696;2022-07-04T01:02:27;5.00;;;3.10;;
16504;SDS011;8365;51.030;4.696;2022-07-04T01:04:58;3.57;;;2.90;;
16504;SDS011;8365;51.030;4.696;2022-07-04T01:07:28;5.23;;;3.20;;
16504;SDS011;8365;51.030;4.696;2022-07-04T01:09:59;5.03;;;3.10;;
16504;SDS011;8365;51.030;4.696;2022-07-04T01:12:30;5.07;;;3.10;;
16504;SDS011;8365;51.030;4.696;2022-07-04T01:15:00;3.90;;;3.50;;
16504;SDS011;8365;51.030;4.696;2022-07-04T01:17:31;4.43;;;3.10;;
16504;SDS011;8365;51.030;4.696;2022-07-04T01:20:02;4.70;;;3.03;;
16504;SDS011;8365;51.030;4.696;2022-07-04T01:22:33;3.97;;;2.93;;
16504;SDS011;8365;51.030;4.696;2022-07-04T01:25:03;4.03;;;2.87;;
16504;SDS011;8365;51.030;4.696;2022-07-04T01:27:34;7.13;;;3.40;;
16504;SDS011;8365;51.030;4.696;2022-07-04T01:30:05;6.30;;;3.20;;
16504;SDS011;8365;51.030;4.696;2022-07-04T01:32:36;4.10;;;3.00;;
16504;SDS011;8365;51.030;4.696;2022-07-04T01:35:07;4.83;;;2.90;;
16504;SDS011;8365;51.030;4.696;2022-07-04T01:37:38;3.00;;;2.70;;
16504;SDS011;8365;51.030;4.696;2022-07-04T01:40:08;4.77;;;3.37;;
16504;SDS011;8365;51.030;4.696;2022-07-04T01:42:40;4.37;;;3.30;;
16504;SDS011;8365;51.030;4.696;2022-07-04T01:45:11;3.33;;;2.67;;
16504;SDS011;8365;51.030;4.696;2022-07-04T01:47:42;5.80;;;3.43;;
16504;SDS011;8365;51.030;4.696;2022-07-04T01:50:12;4.50;;;2.83;;
16504;SDS011;8365;51.030;4.696;2022-07-04T01:52:43;4.57;;;3.30;;
16504;SDS011;8365;51.030;4.696;2022-07-04T01:55:13;3.57;;;3.27;;
16504;SDS011;8365;51.030;4.696;2022-07-04T01:57:44;4.80;;;3.50;;
16504;SDS011;8365;51.030;4.696;2022-07-04T02:00:14;4.23;;;3.20;;
16504;SDS011;8365;51.030;4.696;2022-07-04T02:03:03;4.60;;;3.50;;
16504;SDS011;8365;51.030;4.696;2022-07-04T02:05:36;4.23;;;3.20;;
16504;SDS011;8365;51.030;4.696;2022-07-04T02:08:07;4.50;;;3.27;;
16504;SDS011;8365;51.030;4.696;2022-07-04T02:10:41;7.73;;;3.37;;
16504;SDS011;8365;51.030;4.696;2022-07-04T02:13:11;4.33;;;3.17;;
16504;SDS011;8365;51.030;4.696;2022-07-04T02:15:41;4.67;;;3.53;;
16504;SDS011;8365;51.030;4.696;2022-07-04T02:18:12;3.70;;;3.40;;
16504;SDS011;8365;51.030;4.696;2022-07-04T02:20:43;5.43;;;3.63;;
16504;SDS011;8365;51.030;4.696;2022-07-04T02:23:13;4.57;;;4.00;;
16504;SDS011;8365;51.030;4.696;2022-07-04T02:25:44;4.50;;;4.10;;
16504;SDS011;8365;51.030;4.696;2022-07-04T02:28:14;6.83;;;4.23;;
16504;SDS011;8365;51.030;4.696;2022-07-04T02:30:44;5.97;;;4.47;;
16504;SDS011;8365;51.030;4.696;2022-07-04T02:33:15;7.90;;;4.70;;
16504;SDS011;8365;51.030;4.696;2022-07-04T02:35:45;10.90;;;5.57;;
16504;SDS011;8365;51.030;4.696;2022-07-04T02:38:16;7.70;;;5.63;;
16504;SDS011;8365;51.030;4.696;2022-07-04T02:40:46;9.73;;;5.40;;
16504;SDS011;8365;51.030;4.696;2022-07-04T02:43:19;8.23;;;6.63;;
16504;SDS011;8365;51.030;4.696;2022-07-04T02:45:49;8.70;;;5.70;;
16504;SDS011;8365;51.030;4.696;2022-07-04T02:48:20;11.33;;;6.73;;
16504;SDS011;8365;51.030;4.696;2022-07-04T02:50:50;9.30;;;6.03;;
16504;SDS011;8365;51.030;4.696;2022-07-04T02:53:21;12.30;;;6.93;;
16504;SDS011;8365;51.030;4.696;2022-07-04T02:55:51;8.83;;;6.63;;
16504;SDS011;8365;51.030;4.696;2022-07-04T02:58:22;8.93;;;6.50;;
16504;SDS011;8365;51.030;4.696;2022-07-04T03:00:52;11.47;;;7.23;;
16504;SDS011;8365;51.030;4.696;2022-07-04T03:03:23;10.03;;;6.80;;
16504;SDS011;8365;51.030;4.696;2022-07-04T03:05:53;7.47;;;6.73;;
16504;SDS011;8365;51.030;4.696;2022-07-04T03:08:24;9.90;;;6.63;;
16504;SDS011;8365;51.030;4.696;2022-07-04T03:10:54;8.73;;;6.70;;
16504;SDS011;8365;51.030;4.696;2022-07-04T03:13:27;9.13;;;6.73;;
16504;SDS011;8365;51.030;4.696;2022-07-04T03:15:57;9.50;;;6.33;;
16504;SDS011;8365;51.030;4.696;2022-07-04T03:18:28;7.70;;;5.97;;
16504;SDS011;8365;51.030;4.696;2022-07-04T03:20:58;10.97;;;6.23;;
16504;SDS011;8365;51.030;4.696;2022-07-04T03:23:30;10.07;;;6.37;;
16504;SDS011;8365;51.030;4.696;2022-07-04T03:26:02;11.63;;;6.00;;
16504;SDS011;8365;51.030;4.696;2022-07-04T03:28:32;9.83;;;5.57;;
16504;SDS011;8365;51.030;4.696;2022-07-04T03:31:03;10.90;;;6.30;;
16504;SDS011;8365;51.030;4.696;2022-07-04T03:33:33;9.43;;;6.20;;
16504;SDS011;8365;51.030;4.696;2022-07-04T03:36:04;8.17;;;6.00;;
16504;SDS011;8365;51.030;4.696;2022-07-04T03:38:34;11.67;;;6.50;;
16504;SDS011;8365;51.030;4.696;2022-07-04T03:41:05;7.33;;;6.00;;
16504;SDS011;8365;51.030;4.696;2022-07-04T03:43:35;10.23;;;6.00;;
16504;SDS011;8365;51.030;4.696;2022-07-04T03:46:06;7.93;;;6.13;;
16504;SDS011;8365;51.030;4.696;2022-07-04T03:48:36;8.97;;;5.83;;
16504;SDS011;8365;51.030;4.696;2022-07-04T03:51:10;9.43;;;6.03;;
16504;SDS011;8365;51.030;4.696;2022-07-04T03:53:44;8.47;;;6.27;;
16504;SDS011;8365;51.030;4.696;2022-07-04T03:56:14;8.80;;;5.73;;
16504;SDS011;8365;51.030;4.696;2022-07-04T03:58:45;7.43;;;5.97;;
16504;SDS011;8365;51.030;4.696;2022-07-04T04:01:18;9.07;;;5.63;;
16504;SDS011;8365;51.030;4.696;2022-07-04T04:03:49;7.60;;;5.70;;
16504;SDS011;8365;51.030;4.696;2022-07-04T04:06:52;8.00;;;5.60;;
16504;SDS011;8365;51.030;4.696;2022-07-04T04:09:22;9.37;;;5.70;;
16504;SDS011;8365;51.030;4.696;2022-07-04T04:11:54;10.57;;;5.73;;
16504;SDS011;8365;51.030;4.696;2022-07-04T04:14:25;7.87;;;5.33;;
16504;SDS011;8365;51.030;4.696;2022-07-04T04:16:57;8.03;;;5.50;;
16504;SDS011;8365;51.030;4.696;2022-07-04T04:19:28;12.07;;;5.97;;
16504;SDS011;8365;51.030;4.696;2022-07-04T04:22:00;8.77;;;5.33;;
16504;SDS011;8365;51.030;4.696;2022-07-04T04:24:31;10.33;;;5.93;;
16504;SDS011;8365;51.030;4.696;2022-07-04T04:27:01;8.20;;;5.53;;
16504;SDS011;8365;51.030;4.696;2022-07-04T04:29:32;6.83;;;5.03;;
16504;SDS011;8365;51.030;4.696;2022-07-04T04:32:02;9.17;;;6.10;;
16504;SDS011;8365;51.030;4.696;2022-07-04T04:34:33;10.37;;;5.87;;
16504;SDS011;8365;51.030;4.696;2022-07-04T04:37:04;10.30;;;6.00;;
16504;SDS011;8365;51.030;4.696;2022-07-04T04:39:34;8.07;;;5.53;;
16504;SDS011;8365;51.030;4.696;2022-07-04T04:42:04;9.73;;;5.70;;
16504;SDS011;8365;51.030;4.696;2022-07-04T04:44:35;6.80;;;5.30;;
16504;SDS011;8365;51.030;4.696;2022-07-04T04:47:06;7.13;;;5.50;;
16504;SDS011;8365;51.030;4.696;2022-07-04T04:49:36;6.67;;;5.23;;
16504;SDS011;8365;51.030;4.696;2022-07-04T04:52:07;5.77;;;4.87;;
16504;SDS011;8365;51.030;4.696;2022-07-04T04:54:37;7.00;;;4.53;;
16504;SDS011;8365;51.030;4.696;2022-07-04T04:57:08;6.03;;;5.00;;
16504;SDS011;8365;51.030;4.696;2022-07-04T04:59:38;6.63;;;4.97;;
16504;SDS011;8365;51.030;4.696;2022-07-04T05:02:09;5.13;;;4.73;;
16504;SDS011;8365;51.030;4.696;2022-07-04T05:04:39;9.67;;;5.10;;
16504;SDS011;8365;51.030;4.696;2022-07-04T05:07:10;6.53;;;4.80;;
16504;SDS011;8365;51.030;4.696;2022-07-04T05:09:40;6.53;;;4.60;;
16504;SDS011;8365;51.030;4.696;2022-07-04T05:12:11;6.00;;;4.57;;
16504;SDS011;8365;51.030;4.696;2022-07-04T05:14:41;4.90;;;4.23;;
16504;SDS011;8365;51.030;4.696;2022-07-04T05:17:12;5.43;;;3.80;;
16504;SDS011;8365;51.030;4.696;2022-07-04T05:19:43;6.53;;;4.60;;
16504;SDS011;8365;51.030;4.696;2022-07-04T05:22:16;6.37;;;4.23;;
16504;SDS011;8365;51.030;4.696;2022-07-04T05:24:46;4.70;;;4.20;;
16504;SDS011;8365;51.030;4.696;2022-07-04T05:27:19;5.30;;;4.13;;
16504;SDS011;8365;51.030;4.696;2022-07-04T05:29:49;7.53;;;4.47;;
16504;SDS011;8365;51.030;4.696;2022-07-04T05:32:20;12.03;;;4.20;;
16504;SDS011;8365;51.030;4.696;2022-07-04T05:34:50;8.80;;;4.30;;
16504;SDS011;8365;51.030;4.696;2022-07-04T05:37:21;4.63;;;4.17;;
16504;SDS011;8365;51.030;4.696;2022-07-04T05:39:52;5.00;;;3.73;;
16504;SDS011;8365;51.030;4.696;2022-07-04T05:42:22;5.13;;;4.03;;
16504;SDS011;8365;51.030;4.696;2022-07-04T05:44:53;5.93;;;4.23;;
16504;SDS011;8365;51.030;4.696;2022-07-04T05:47:23;7.63;;;4.03;;
16504;SDS011;8365;51.030;4.696;2022-07-04T05:49:54;8.20;;;3.70;;
16504;SDS011;8365;51.030;4.696;2022-07-04T05:52:25;4.93;;;3.70;;
16504;SDS011;8365;51.030;4.696;2022-07-04T05:54:56;5.93;;;3.43;;
16504;SDS011;8365;51.030;4.696;2022-07-04T05:57:26;5.93;;;3.13;;
16504;SDS011;8365;51.030;4.696;2022-07-04T05:59:57;4.37;;;3.10;;
16504;SDS011;8365;51.030;4.696;2022-07-04T06:02:27;5.33;;;3.47;;
16504;SDS011;8365;51.030;4.696;2022-07-04T06:04:58;5.17;;;3.13;;
16504;SDS011;8365;51.030;4.696;2022-07-04T06:07:28;5.70;;;3.50;;
16504;SDS011;8365;51.030;4.696;2022-07-04T06:09:59;5.07;;;3.00;;
16504;SDS011;8365;51.030;4.696;2022-07-04T06:12:29;5.67;;;2.90;;
16504;SDS011;8365;51.030;4.696;2022-07-04T06:15:00;2.73;;;2.53;;
16504;SDS011;8365;51.030;4.696;2022-07-04T06:17:31;4.73;;;3.00;;
16504;SDS011;8365;51.030;4.696;2022-07-04T06:20:02;3.60;;;2.70;;
16504;SDS011;8365;51.030;4.696;2022-07-04T06:22:39;4.67;;;3.10;;
16504;SDS011;8365;51.030;4.696;2022-07-04T06:25:17;4.23;;;2.70;;
16504;SDS011;8365;51.030;4.696;2022-07-04T06:27:49;3.27;;;2.60;;
16504;SDS011;8365;51.030;4.696;2022-07-04T06:30:21;3.57;;;2.50;;
16504;SDS011;8365;51.030;4.696;2022-07-04T06:32:53;4.60;;;2.40;;
16504;SDS011;8365;51.030;4.696;2022-07-04T06:35:26;2.53;;;1.80;;
16504;SDS011;8365;51.030;4.696;2022-07-04T06:38:18;5.37;;;2.30;;
16504;SDS011;8365;51.030;4.696;2022-07-04T06:40:50;2.27;;;1.93;;
16504;SDS011;8365;51.030;4.696;2022-07-04T06:43:24;5.83;;;2.20;;
16504;SDS011;8365;51.030;4.696;2022-07-04T06:45:55;5.43;;;2.10;;
16504;SDS011;8365;51.030;4.696;2022-07-04T06:48:27;4.83;;;1.90;;
16504;SDS011;8365;51.030;4.696;2022-07-04T06:50:58;3.30;;;1.90;;
16504;SDS011;8365;51.030;4.696;2022-07-04T06:53:28;3.83;;;1.80;;
16504;SDS011;8365;51.030;4.696;2022-07-04T06:55:59;2.37;;;1.70;;
16504;SDS011;8365;51.030;4.696;2022-07-04T06:58:29;5.43;;;2.10;;
16504;SDS011;8365;51.030;4.696;2022-07-04T07:01:00;3.08;;;1.90;;
16504;SDS011;8365;51.030;4.696;2022-07-04T07:03:30;3.45;;;1.35;;
16504;SDS011;8365;51.030;4.696;2022-07-04T07:06:01;3.97;;;1.80;;
16504;SDS011;8365;51.030;4.696;2022-07-04T07:08:32;3.83;;;1.90;;
16504;SDS011;8365;51.030;4.696;2022-07-04T07:11:03;4.82;;;2.00;;
16504;SDS011;8365;51.030;4.696;2022-07-04T07:13:43;4.35;;;2.10;;
16504;SDS011;8365;51.030;4.696;2022-07-04T07:16:17;3.55;;;1.90;;
16504;SDS011;8365;51.030;4.696;2022-07-04T07:18:49;4.90;;;2.10;;
16504;SDS011;8365;51.030;4.696;2022-07-04T07:21:19;2.90;;;1.92;;
16504;SDS011;8365;51.030;4.696;2022-07-04T07:23:50;3.35;;;2.10;;
16504;SDS011;8365;51.030;4.696;2022-07-04T07:26:20;3.38;;;1.88;;
16504;SDS011;8365;51.030;4.696;2022-07-04T07:28:50;4.57;;;2.00;;
16504;SDS011;8365;51.030;4.696;2022-07-04T07:31:21;3.05;;;1.95;;
16504;SDS011;8365;51.030;4.696;2022-07-04T07:33:51;4.10;;;2.00;;
16504;SDS011;8365;51.030;4.696;2022-07-04T07:36:22;6.45;;;2.00;;
16504;SDS011;8365;51.030;4.696;2022-07-04T07:38:52;3.63;;;2.00;;
16504;SDS011;8365;51.030;4.696;2022-07-04T07:41:26;5.53;;;2.10;;
16504;SDS011;8365;51.030;4.696;2022-07-04T07:43:56;5.35;;;1.95;;
16504;SDS011;8365;51.030;4.696;2022-07-04T07:46:27;3.15;;;1.73;;
16504;SDS011;8365;51.030;4.696;2022-07-04T07:48:58;4.35;;;1.83;;
16504;SDS011;8365;51.030;4.696;2022-07-04T07:51:28;4.35;;;1.67;;
16504;SDS011;8365;51.030;4.696;2022-07-04T07:53:59;4.47;;;1.80;;
16504;SDS011;8365;51.030;4.696;2022-07-04T07:56:30;2.33;;;1.60;;
16504;SDS011;8365;51.030;4.696;2022-07-04T07:59:00;2.63;;;1.80;;
16504;SDS011;8365;51.030;4.696;2022-07-04T08:01:31;2.90;;;1.75;;
16504;SDS011;8365;51.030;4.696;2022-07-04T08:04:01;3.95;;;1.70;;
16504;SDS011;8365;51.030;4.696;2022-07-04T08:06:50;3.75;;;1.80;;
16504;SDS011;8365;51.030;4.696;2022-07-04T08:09:21;4.00;;;1.90;;
16504;SDS011;8365;51.030;4.696;2022-07-04T08:11:51;3.28;;;1.48;;
16504;SDS011;8365;51.030;4.696;2022-07-04T08:14:25;3.28;;;1.85;;
16504;SDS011;8365;51.030;4.696;2022-07-04T08:16:56;3.47;;;1.77;;
16504;SDS011;8365;51.030;4.696;2022-07-04T08:19:27;2.30;;;1.70;;
16504;SDS011;8365;51.030;4.696;2022-07-04T08:21:58;4.78;;;2.25;;
16504;SDS011;8365;51.030;4.696;2022-07-04T08:24:28;3.35;;;1.70;;
16504;SDS011;8365;51.030;4.696;2022-07-04T08:26:58;2.97;;;1.60;;
16504;SDS011;8365;51.030;4.696;2022-07-04T08:29:29;2.75;;;1.70;;
16504;SDS011;8365;51.030;4.696;2022-07-04T08:32:02;1.60;;;1.40;;
16504;SDS011;8365;51.030;4.696;2022-07-04T08:34:33;4.20;;;1.50;;
16504;SDS011;8365;51.030;4.696;2022-07-04T08:37:04;4.95;;;1.70;;
16504;SDS011;8365;51.030;4.696;2022-07-04T08:39:35;3.47;;;1.90;;
16504;SDS011;8365;51.030;4.696;2022-07-04T08:42:06;3.75;;;1.65;;
16504;SDS011;8365;51.030;4.696;2022-07-04T08:44:44;5.28;;;1.80;;
16504;SDS011;8365;51.030;4.696;2022-07-04T08:47:21;2.55;;;1.45;;
16504;SDS011;8365;51.030;4.696;2022-07-04T08:49:58;3.25;;;1.50;;
16504;SDS011;8365;51.030;4.696;2022-07-04T08:52:35;3.20;;;2.00;;
16504;SDS011;8365;51.030;4.696;2022-07-04T08:55:11;2.90;;;1.70;;
16504;SDS011;8365;51.030;4.696;2022-07-04T08:58:01;2.05;;;1.23;;
16504;SDS011;8365;51.030;4.696;2022-07-04T09:00:51;3.28;;;1.70;;
16504;SDS011;8365;51.030;4.696;2022-07-04T09:03:23;2.30;;;1.50;;
16504;SDS011;8365;51.030;4.696;2022-07-04T09:05:55;1.92;;;1.40;;
16504;SDS011;8365;51.030;4.696;2022-07-04T09:08:27;3.58;;;1.30;;
16504;SDS011;8365;51.030;4.696;2022-07-04T09:10:57;3.08;;;1.30;;
16504;SDS011;8365;51.030;4.696;2022-07-04T09:13:29;3.60;;;1.50;;
16504;SDS011;8365;51.030;4.696;2022-07-04T09:16:00;3.13;;;1.83;;
16504;SDS011;8365;51.030;4.696;2022-07-04T09:18:32;2.05;;;1.40;;
16504;SDS011;8365;51.030;4.696;2022-07-04T09:21:06;1.98;;;1.40;;
16504;SDS011;8365;51.030;4.696;2022-07-04T09:23:38;2.33;;;1.60;;
16504;SDS011;8365;51.030;4.696;2022-07-04T09:28:53;4.38;;;1.80;;
16504;SDS011;8365;51.030;4.696;2022-07-04T09:31:28;4.60;;;2.00;;
16504;SDS011;8365;51.030;4.696;2022-07-04T09:34:00;2.78;;;1.70;;
16504;SDS011;8365;51.030;4.696;2022-07-04T09:36:34;2.47;;;1.75;;
16504;SDS011;8365;51.030;4.696;2022-07-04T09:39:15;3.65;;;1.65;;
16504;SDS011;8365;51.030;4.696;2022-07-04T09:44:42;5.88;;;1.60;;
16504;SDS011;8365;51.030;4.696;2022-07-04T09:47:24;4.78;;;1.50;;
16504;SDS011;8365;51.030;4.696;2022-07-04T09:55:29;2.25;;;1.40;;
16504;SDS011;8365;51.030;4.696;2022-07-04T09:58:10;2.20;;;1.63;;
16504;SDS011;8365;51.030;4.696;2022-07-04T10:00:46;3.60;;;1.75;;
16504;SDS011;8365;51.030;4.696;2022-07-04T10:03:30;5.45;;;1.60;;
16504;SDS011;8365;51.030;4.696;2022-07-04T10:06:10;2.17;;;1.30;;
16504;SDS011;8365;51.030;4.696;2022-07-04T10:08:42;3.50;;;1.77;;
16504;SDS011;8365;51.030;4.696;2022-07-04T10:11:13;3.97;;;1.50;;
16504;SDS011;8365;51.030;4.696;2022-07-04T10:13:44;4.72;;;1.63;;
16504;SDS011;8365;51.030;4.696;2022-07-04T10:16:15;3.20;;;1.65;;
16504;SDS011;8365;51.030;4.696;2022-07-04T10:18:46;3.67;;;1.70;;
16504;SDS011;8365;51.030;4.696;2022-07-04T10:21:17;3.08;;;1.70;;
16504;SDS011;8365;51.030;4.696;2022-07-04T10:23:47;3.80;;;1.83;;
16504;SDS011;8365;51.030;4.696;2022-07-04T10:26:20;3.35;;;1.33;;
16504;SDS011;8365;51.030;4.696;2022-07-04T10:28:52;2.38;;;1.58;;
16504;SDS011;8365;51.030;4.696;2022-07-04T10:31:24;4.72;;;1.75;;
16504;SDS011;8365;51.030;4.696;2022-07-04T10:33:58;3.30;;;1.60;;
16504;SDS011;8365;51.030;4.696;2022-07-04T10:36:31;4.35;;;1.52;;
16504;SDS011;8365;51.030;4.696;2022-07-04T10:39:04;1.98;;;1.50;;
16504;SDS011;8365;51.030;4.696;2022-07-04T10:41:34;5.13;;;1.67;;
16504;SDS011;8365;51.030;4.696;2022-07-04T10:44:07;4.85;;;1.83;;
16504;SDS011;8365;51.030;4.696;2022-07-04T10:46:50;6.75;;;1.80;;
16504;SDS011;8365;51.030;4.696;2022-07-04T10:49:22;1.80;;;1.42;;
16504;SDS011;8365;51.030;4.696;2022-07-04T10:52:07;2.95;;;1.65;;
16504;SDS011;8365;51.030;4.696;2022-07-04T10:54:43;2.58;;;1.80;;
16504;SDS011;8365;51.030;4.696;2022-07-04T10:57:18;2.58;;;1.58;;
16504;SDS011;8365;51.030;4.696;2022-07-04T11:02:24;2.03;;;1.60;;
16504;SDS011;8365;51.030;4.696;2022-07-04T11:05:01;1.77;;;1.67;;
16504;SDS011;8365;51.030;4.696;2022-07-04T11:18:04;3.55;;;1.83;;
16504;SDS011;8365;51.030;4.696;2022-07-04T11:20:41;2.45;;;1.65;;
16504;SDS011;8365;51.030;4.696;2022-07-04T11:23:18;3.97;;;1.60;;
16504;SDS011;8365;51.030;4.696;2022-07-04T11:25:53;2.70;;;1.60;;
16504;SDS011;8365;51.030;4.696;2022-07-04T11:28:27;2.55;;;1.48;;
16504;SDS011;8365;51.030;4.696;2022-07-04T11:31:00;1.60;;;1.50;;
16504;SDS011;8365;51.030;4.696;2022-07-04T11:33:31;3.42;;;2.03;;
16504;SDS011;8365;51.030;4.696;2022-07-04T11:36:10;2.17;;;1.75;;
16504;SDS011;8365;51.030;4.696;2022-07-04T11:41:28;2.85;;;2.00;;
16504;SDS011;8365;51.030;4.696;2022-07-04T11:44:19;2.20;;;1.75;;
16504;SDS011;8365;51.030;4.696;2022-07-04T11:47:17;4.57;;;2.05;;
16504;SDS011;8365;51.030;4.696;2022-07-04T11:52:22;3.42;;;1.67;;
16504;SDS011;8365;51.030;4.696;2022-07-04T11:54:54;2.90;;;1.60;;
16504;SDS011;8365;51.030;4.696;2022-07-04T11:57:25;2.28;;;1.70;;
16504;SDS011;8365;51.030;4.696;2022-07-04T12:02:43;3.15;;;2.00;;
16504;SDS011;8365;51.030;4.696;2022-07-04T12:05:15;2.60;;;1.63;;
16504;SDS011;8365;51.030;4.696;2022-07-04T12:07:47;4.43;;;2.10;;
16504;SDS011;8365;51.030;4.696;2022-07-04T12:10:22;3.00;;;1.85;;
16504;SDS011;8365;51.030;4.696;2022-07-04T12:12:54;4.97;;;1.90;;
16504;SDS011;8365;51.030;4.696;2022-07-04T12:15:44;3.65;;;2.08;;
16504;SDS011;8365;51.030;4.696;2022-07-04T12:18:19;3.88;;;1.90;;
16504;SDS011;8365;51.030;4.696;2022-07-04T12:24:03;3.38;;;1.80;;
16504;SDS011;8365;51.030;4.696;2022-07-04T12:26:44;2.63;;;1.83;;
16504;SDS011;8365;51.030;4.696;2022-07-04T12:29:25;2.75;;;1.80;;
16504;SDS011;8365;51.030;4.696;2022-07-04T12:31:57;3.70;;;1.98;;
16504;SDS011;8365;51.030;4.696;2022-07-04T12:34:27;2.95;;;1.92;;
16504;SDS011;8365;51.030;4.696;2022-07-04T12:36:59;5.35;;;2.20;;
16504;SDS011;8365;51.030;4.696;2022-07-04T12:39:39;3.28;;;1.90;;
16504;SDS011;8365;51.030;4.696;2022-07-04T12:42:12;3.40;;;2.20;;
16504;SDS011;8365;51.030;4.696;2022-07-04T12:44:47;4.55;;;2.05;;
16504;SDS011;8365;51.030;4.696;2022-07-04T12:47:21;4.78;;;2.10;;
16504;SDS011;8365;51.030;4.696;2022-07-04T12:49:52;2.83;;;1.95;;
16504;SDS011;8365;51.030;4.696;2022-07-04T12:52:24;4.22;;;2.05;;
16504;SDS011;8365;51.030;4.696;2022-07-04T12:55:04;3.10;;;2.05;;
16504;SDS011;8365;51.030;4.696;2022-07-04T12:57:37;2.80;;;2.00;;
16504;SDS011;8365;51.030;4.696;2022-07-04T13:00:08;4.13;;;2.00;;
16504;SDS011;8365;51.030;4.696;2022-07-04T13:02:39;3.58;;;2.00;;
16504;SDS011;8365;51.030;4.696;2022-07-04T13:05:09;2.85;;;1.92;;
16504;SDS011;8365;51.030;4.696;2022-07-04T13:07:39;4.88;;;2.35;;
16504;SDS011;8365;51.030;4.696;2022-07-04T13:10:10;2.45;;;1.95;;
16504;SDS011;8365;51.030;4.696;2022-07-04T13:12:41;3.10;;;2.20;;
16504;SDS011;8365;51.030;4.696;2022-07-04T13:15:11;5.70;;;2.20;;
16504;SDS011;8365;51.030;4.696;2022-07-04T13:17:41;3.08;;;1.92;;
16504;SDS011;8365;51.030;4.696;2022-07-04T13:20:12;2.22;;;1.80;;
16504;SDS011;8365;51.030;4.696;2022-07-04T13:22:42;2.40;;;2.15;;
16504;SDS011;8365;51.030;4.696;2022-07-04T13:25:13;2.78;;;1.88;;
16504;SDS011;8365;51.030;4.696;2022-07-04T13:27:43;2.25;;;2.05;;
16504;SDS011;8365;51.030;4.696;2022-07-04T13:30:14;2.78;;;2.05;;
16504;SDS011;8365;51.030;4.696;2022-07-04T13:32:45;2.95;;;2.13;;
16504;SDS011;8365;51.030;4.696;2022-07-04T13:35:15;3.53;;;2.00;;
16504;SDS011;8365;51.030;4.696;2022-07-04T13:37:46;4.10;;;2.33;;
16504;SDS011;8365;51.030;4.696;2022-07-04T13:40:16;3.58;;;2.13;;
16504;SDS011;8365;51.030;4.696;2022-07-04T13:42:47;3.10;;;2.17;;
16504;SDS011;8365;51.030;4.696;2022-07-04T13:45:29;5.10;;;2.45;;
16504;SDS011;8365;51.030;4.696;2022-07-04T13:48:02;3.20;;;2.17;;
16504;SDS011;8365;51.030;4.696;2022-07-04T13:50:32;6.28;;;2.30;;
16504;SDS011;8365;51.030;4.696;2022-07-04T13:53:08;3.58;;;2.13;;
16504;SDS011;8365;51.030;4.696;2022-07-04T13:55:39;2.35;;;2.00;;
16504;SDS011;8365;51.030;4.696;2022-07-04T13:58:10;4.75;;;2.08;;
16504;SDS011;8365;51.030;4.696;2022-07-04T14:00:40;3.20;;;2.40;;
16504;SDS011;8365;51.030;4.696;2022-07-04T14:03:14;3.95;;;2.33;;
16504;SDS011;8365;51.030;4.696;2022-07-04T14:05:45;3.55;;;2.60;;
16504;SDS011;8365;51.030;4.696;2022-07-04T14:08:18;3.17;;;2.38;;
16504;SDS011;8365;51.030;4.696;2022-07-04T14:10:51;2.67;;;2.20;;
16504;SDS011;8365;51.030;4.696;2022-07-04T14:13:21;5.25;;;2.10;;
16504;SDS011;8365;51.030;4.696;2022-07-04T14:15:52;3.83;;;2.03;;
16504;SDS011;8365;51.030;4.696;2022-07-04T14:18:22;4.25;;;2.15;;
16504;SDS011;8365;51.030;4.696;2022-07-04T14:20:53;2.65;;;2.00;;
16504;SDS011;8365;51.030;4.696;2022-07-04T14:23:23;4.35;;;1.98;;
16504;SDS011;8365;51.030;4.696;2022-07-04T14:26:12;2.42;;;1.80;;
16504;SDS011;8365;51.030;4.696;2022-07-04T14:28:45;2.22;;;2.03;;
16504;SDS011;8365;51.030;4.696;2022-07-04T14:31:16;2.65;;;2.13;;
16504;SDS011;8365;51.030;4.696;2022-07-04T14:33:48;3.30;;;2.10;;
16504;SDS011;8365;51.030;4.696;2022-07-04T14:36:19;2.20;;;1.80;;
16504;SDS011;8365;51.030;4.696;2022-07-04T14:38:49;2.22;;;2.00;;
16504;SDS011;8365;51.030;4.696;2022-07-04T14:41:20;2.70;;;2.00;;
16504;SDS011;8365;51.030;4.696;2022-07-04T14:43:52;5.25;;;1.75;;
16504;SDS011;8365;51.030;4.696;2022-07-04T14:46:24;2.65;;;2.13;;
16504;SDS011;8365;51.030;4.696;2022-07-04T14:48:55;3.03;;;2.03;;
16504;SDS011;8365;51.030;4.696;2022-07-04T14:51:26;1.90;;;1.80;;
16504;SDS011;8365;51.030;4.696;2022-07-04T14:53:57;2.80;;;1.90;;
16504;SDS011;8365;51.030;4.696;2022-07-04T14:56:27;2.15;;;1.67;;
16504;SDS011;8365;51.030;4.696;2022-07-04T14:59:00;2.65;;;1.90;;
16504;SDS011;8365;51.030;4.696;2022-07-04T15:01:31;5.95;;;2.03;;
16504;SDS011;8365;51.030;4.696;2022-07-04T15:04:02;2.58;;;1.70;;
16504;SDS011;8365;51.030;4.696;2022-07-04T15:06:32;3.35;;;1.88;;
16504;SDS011;8365;51.030;4.696;2022-07-04T15:09:03;2.50;;;1.95;;
16504;SDS011;8365;51.030;4.696;2022-07-04T15:11:35;2.20;;;1.67;;
16504;SDS011;8365;51.030;4.696;2022-07-04T15:14:06;2.38;;;1.80;;
16504;SDS011;8365;51.030;4.696;2022-07-04T15:16:36;2.35;;;1.75;;
16504;SDS011;8365;51.030;4.696;2022-07-04T15:19:06;4.88;;;2.25;;
16504;SDS011;8365;51.030;4.696;2022-07-04T15:21:37;2.30;;;2.10;;
16504;SDS011;8365;51.030;4.696;2022-07-04T15:24:26;4.40;;;2.30;;
16504;SDS011;8365;51.030;4.696;2022-07-04T15:26:56;2.42;;;1.80;;
16504;SDS011;8365;51.030;4.696;2022-07-04T15:29:27;3.42;;;1.95;;
16504;SDS011;8365;51.030;4.696;2022-07-04T15:31:58;2.67;;;2.20;;
16504;SDS011;8365;51.030;4.696;2022-07-04T15:34:29;3.88;;;2.20;;
16504;SDS011;8365;51.030;4.696;2022-07-04T15:36:59;4.10;;;2.10;;
16504;SDS011;8365;51.030;4.696;2022-07-04T15:39:29;3.03;;;2.00;;
16504;SDS011;8365;51.030;4.696;2022-07-04T15:42:00;4.50;;;2.22;;
16504;SDS011;8365;51.030;4.696;2022-07-04T15:44:30;2.42;;;1.92;;
16504;SDS011;8365;51.030;4.696;2022-07-04T15:47:01;3.45;;;1.88;;
16504;SDS011;8365;51.030;4.696;2022-07-04T15:49:37;2.55;;;2.28;;
16504;SDS011;8365;51.030;4.696;2022-07-04T15:52:08;3.42;;;1.95;;
16504;SDS011;8365;51.030;4.696;2022-07-04T15:54:39;3.65;;;2.20;;
16504;SDS011;8365;51.030;4.696;2022-07-04T15:57:09;2.75;;;2.05;;
16504;SDS011;8365;51.030;4.696;2022-07-04T15:59:39;4.18;;;2.50;;
16504;SDS011;8365;51.030;4.696;2022-07-04T16:02:11;3.58;;;2.05;;
16504;SDS011;8365;51.030;4.696;2022-07-04T16:04:41;3.78;;;2.05;;
16504;SDS011;8365;51.030;4.696;2022-07-04T16:07:12;3.30;;;2.10;;